This demonstration page uses our WeatherBlox Daily Observations layout. Learn more.

Left ArrowRight Arrow

Hourly Observations for February 24, 2016

Temp ( °F °C ) Dew Point ( °F °C ) Humidity (%) Winds ( mph kmh ) Pressure ( in mb ) Visibility ( mi km ) Precip ( " mm )
12:51 am 00:51 Clear 47 8.3 22 -5.6 37 37 SSE 13 20 30.16 1021 10 16.0934 N/A
1:51 am 01:51 Clear 43 6.1 22 -5.6 43 43 SE 9 15 30.18 1022 10 16.0934 N/A
2:51 am 02:51 Clear 41 5 22 -5.6 47 47 SE 8 13 30.19 1022 10 16.0934 N/A
3:51 am 03:51 Clear 40 4.4 22 -5.6 49 49 SE 8 13 30.2 1023 10 16.0934 N/A
4:51 am 04:51 Clear 38 3.3 22 -5.6 52 52 S 7 11 30.22 1023 10 16.0934 N/A
5:51 am 05:51 Clear 40 4.4 22 -5.6 49 49 SE 8 13 30.24 1024 10 16.0934 N/A
6:51 am 06:51 Clear 37 2.8 22 -5.6 54 54 SE 7 11 30.27 1025 10 16.0934 N/A
7:51 am 07:51 Sunny 42 5.6 22 -5.6 45 45 SE 7 11 30.29 1026 10 16.0934 N/A
8:51 am 08:51 Sunny 49 9.4 21 -6.1 33 33 ESE 9 15 30.31 1026 10 16.0934 N/A
9:51 am 09:51 Sunny 50 10 22 -5.6 33 33 SSE 13 20 30.29 1026 10 16.0934 N/A
10:51 am 10:51 Sunny 56 13.3 19 -7.2 24 24 SE 22 35 30.26 1025 10 16.0934 N/A
11:51 am 11:51 Sunny 57 13.9 21 -6.1 25 25 ESE 12 19 30.22 1023 10 16.0934 N/A
12:51 pm 12:51 Sunny 61 16.1 21 -6.1 21 21 SE 17 28 30.17 1022 10 16.0934 N/A
1:51 pm 13:51 Sunny 62 16.7 19 -7.2 19 19 SSE 9 15 30.12 1020 10 16.0934 N/A
2:51 pm 14:51 Sunny 65 18.3 17 -8.3 16 16 SE 10 17 30.09 1019 10 16.0934 N/A
3:51 pm 15:51 Sunny 64 17.8 16 -8.9 15 15 ESE 9 15 30.07 1018 10 16.0934 N/A
4:51 pm 16:51 Sunny 64 17.8 16 -8.9 15 15 SE 6 9 30.07 1018 10 16.0934 N/A
5:51 pm 17:51 Sunny 63 17.2 17 -8.3 17 17 SSE 6 9 30.06 1018 10 16.0934 N/A
6:51 pm 18:51 Clear 53 11.7 17 -8.3 24 24 E 7 11 30.1 1019 10 16.0934 N/A
7:51 pm 19:51 Clear 51 10.6 15 -9.4 24 24 E 8 13 30.09 1019 10 16.0934 N/A
8:51 pm 20:51 Clear 48 8.9 16 -8.9 28 28 S 3 6 30.1 1019 10 16.0934 N/A
9:51 pm 21:51 Clear 46 7.8 17 -8.3 31 31 SSE 7 11 30.11 1020 10 16.0934 N/A
10:51 pm 22:51 Clear 45 7.2 18 -7.8 34 34 SSE 5 7 30.1 1019 10 16.0934 N/A
11:51 pm 23:51 Clear 43 6.1 18 -7.8 37 37 ESE 8 13 30.1 1019 10 16.0934 N/A

Powered by AerisWeather